Time;durP1;ratioP1;P1;durP2;ratioP2;P2;SDS_P1;SDS_P2;PMS_P1;PMS_P2;Temp;Humidity;BMP_temperature;BMP_pressure;BME280_temperature;BME280_humidity;BME280_pressure;Samples;Min_cycle;Max_cycle;Signal;HPM_P1;HPM_P2
2024/04/13 00:02:13;;;;;;;11.40;6.82;;;;;;;16.48;66.01;94826.78;5541099;26;19986;-77
2024/04/13 00:04:39;;;;;;;15.07;5.97;;;;;;;16.50;66.46;94815.72;5541040;26;19989;-78
2024/04/13 00:07:04;;;;;;;17.27;6.25;;;;;;;16.56;66.34;94819.78;5540955;25;20122;-78
2024/04/13 00:09:30;;;;;;;16.33;6.93;;;;;;;16.59;66.09;94819.94;5541058;25;19997;-78
2024/04/13 00:11:55;;;;;;;14.85;6.15;;;;;;;16.63;66.00;94820.06;5540878;26;20087;-78
2024/04/13 00:14:20;;;;;;;8.07;5.72;;;;;;;16.59;66.13;94811.06;5540846;26;20001;-78
2024/04/13 00:16:46;;;;;;;10.52;6.40;;;;;;;16.60;65.92;94818.81;5541118;26;19989;-78
2024/04/13 00:19:11;;;;;;;15.75;6.35;;;;;;;16.61;66.38;94806.16;5541280;26;19989;-78
2024/04/13 00:21:39;;;;;;;11.65;6.57;;;;;;;16.60;66.23;94805.34;5541443;25;20193;-77
2024/04/13 00:24:04;;;;;;;13.75;6.47;;;;;;;16.61;66.60;94801.56;5540956;25;20088;-76
2024/04/13 00:26:32;;;;;;;14.40;6.40;;;;;;;16.64;66.81;94800.09;5540272;26;19982;-77
2024/04/13 00:28:58;;;;;;;10.77;6.18;;;;;;;16.63;66.63;94801.22;5509118;26;20046;-77
2024/04/13 00:31:24;;;;;;;11.35;6.28;;;;;;;16.64;66.81;94800.88;5540857;25;20092;-78
2024/04/13 00:33:49;;;;;;;20.73;6.97;;;;;;;16.66;66.78;94803.25;5508923;26;19985;-78
2024/04/13 00:36:15;;;;;;;15.13;7.40;;;;;;;16.70;66.18;94792.63;5540468;25;19986;-77
2024/04/13 00:38:40;;;;;;;14.98;7.18;;;;;;;16.71;66.78;94802.25;5540491;26;20096;-78
2024/04/13 00:41:06;;;;;;;25.08;6.65;;;;;;;16.73;66.54;94800.03;5508980;26;19986;-78
2024/04/13 00:43:31;;;;;;;17.35;7.40;;;;;;;16.70;66.66;94800.69;5540310;26;19997;-78
2024/04/13 00:45:56;;;;;;;12.43;6.22;;;;;;;16.73;66.71;94808.09;5540645;25;20046;-77
2024/04/13 00:48:24;;;;;;;15.43;6.97;;;;;;;16.74;66.88;94799.69;5540276;25;20197;-76
2024/04/13 00:50:58;;;;;;;12.40;6.75;;;;;;;16.76;66.56;94800.16;5539933;26;20129;-77
2024/04/13 00:53:24;;;;;;;13.02;6.00;;;;;;;16.74;66.52;94793.53;5540458;26;19981;-76
2024/04/13 00:55:53;;;;;;;13.23;7.20;;;;;;;16.79;66.51;94796.00;5539689;26;19985;-76
2024/04/13 00:58:30;;;;;;;10.60;6.22;;;;;;;16.77;66.19;94799.06;5540384;26;20197;-76
2024/04/13 01:00:58;;;;;;;12.70;6.43;;;;;;;16.79;66.78;94801.41;5540363;26;19989;-76
2024/04/13 01:03:24;;;;;;;18.33;5.95;;;;;;;16.72;66.55;94807.31;5539871;25;19996;-76
2024/04/13 01:05:51;;;;;;;14.95;6.78;;;;;;;16.75;66.69;94806.69;5508592;26;20017;-77
2024/04/13 01:08:18;;;;;;;14.55;7.50;;;;;;;16.76;66.59;94799.38;5508128;26;20208;-77
2024/04/13 01:10:45;;;;;;;9.82;6.03;;;;;;;16.79;66.74;94812.16;5539622;25;20081;-77
2024/04/13 01:13:11;;;;;;;14.70;7.22;;;;;;;16.77;66.55;94796.38;5539808;25;19993;-77
2024/04/13 01:15:38;;;;;;;10.43;6.53;;;;;;;16.77;66.59;94803.63;5540025;25;19994;-78
2024/04/13 01:18:04;;;;;;;12.98;6.68;;;;;;;16.76;66.46;94802.06;5540011;25;19985;-78
2024/04/13 01:20:31;;;;;;;13.27;8.20;;;;;;;16.75;66.41;94806.69;5540000;26;19993;-78
2024/04/13 01:22:59;;;;;;;14.68;6.93;;;;;;;16.70;66.68;94798.78;5539756;25;20037;-77
2024/04/13 01:25:25;;;;;;;14.15;6.25;;;;;;;16.71;66.79;94803.06;5539306;25;19993;-78
2024/04/13 01:27:50;;;;;;;18.33;7.55;;;;;;;16.70;66.73;94795.31;5539505;26;20207;-77
2024/04/13 01:30:18;;;;;;;13.23;6.72;;;;;;;16.70;66.97;94803.38;5539367;25;19992;-77
2024/04/13 01:32:44;;;;;;;11.35;7.60;;;;;;;16.63;66.87;94804.69;5540099;26;19989;-77
2024/04/13 01:35:10;;;;;;;12.27;6.68;;;;;;;16.57;67.23;94800.63;5539549;26;20013;-77
2024/04/13 01:37:37;;;;;;;11.55;6.45;;;;;;;16.58;67.34;94802.19;5539824;26;19985;-77
2024/04/13 01:40:07;;;;;;;14.23;7.45;;;;;;;16.52;67.29;94800.81;5539602;26;19988;-76
2024/04/13 01:42:33;;;;;;;18.30;8.65;;;;;;;16.47;67.34;94792.16;5539150;26;19985;-76
2024/04/13 01:44:58;;;;;;;20.85;7.60;;;;;;;16.43;67.25;94800.09;5539451;26;19989;-76
2024/04/13 01:47:24;;;;;;;19.88;7.35;;;;;;;16.42;67.38;94798.50;5507402;26;20038;-77
2024/04/13 01:49:49;;;;;;;16.67;7.53;;;;;;;16.37;67.56;94794.13;5538958;25;19981;-76
2024/04/13 01:52:15;;;;;;;15.90;7.35;;;;;;;16.37;67.33;94785.25;5539297;26;20208;-76
2024/04/13 01:54:41;;;;;;;13.75;7.78;;;;;;;16.37;67.69;94785.25;5539268;25;19982;-76
2024/04/13 01:57:06;;;;;;;16.73;8.82;;;;;;;16.35;67.52;94790.97;5539347;26;19981;-77
2024/04/13 01:59:31;;;;;;;13.40;7.55;;;;;;;16.32;67.74;94785.44;5538956;26;19992;-77
2024/04/13 02:01:57;;;;;;;17.55;7.85;;;;;;;16.29;67.76;94784.19;5538856;25;19992;-77
2024/04/13 02:04:23;;;;;;;13.88;8.27;;;;;;;16.25;67.94;94784.06;5539378;25;19995;-77
2024/04/13 02:06:48;;;;;;;18.42;7.88;;;;;;;16.23;68.08;94778.22;5538074;26;19997;-77
2024/04/13 02:09:14;;;;;;;18.20;7.68;;;;;;;16.19;68.09;94785.34;5538803;25;19985;-77
2024/04/13 02:11:40;;;;;;;15.40;7.68;;;;;;;16.17;68.09;94786.81;5539161;26;19991;-78
2024/04/13 02:14:05;;;;;;;11.40;7.07;;;;;;;16.12;68.21;94782.41;5538997;26;20089;-77
2024/04/13 02:16:31;;;;;;;14.63;7.45;;;;;;;16.10;68.21;94787.31;5538613;26;19986;-77
2024/04/13 02:18:56;;;;;;;18.55;9.15;;;;;;;16.05;68.29;94787.50;5539086;26;20154;-77
2024/04/13 02:21:24;;;;;;;12.10;7.43;;;;;;;16.01;68.46;94779.28;5538927;26;19995;-77
2024/04/13 02:23:50;;;;;;;19.40;7.82;;;;;;;15.98;68.46;94773.78;5538464;25;19989;-78
2024/04/13 02:26:15;;;;;;;15.00;8.05;;;;;;;15.89;68.77;94775.72;5539023;25;20100;-78
2024/04/13 02:28:41;;;;;;;11.40;7.47;;;;;;;15.81;68.78;94772.78;5538979;26;20080;-77
2024/04/13 02:31:06;;;;;;;18.15;8.27;;;;;;;15.77;69.08;94779.91;5507288;26;19989;-78
2024/04/13 02:33:32;;;;;;;17.08;8.10;;;;;;;15.73;69.48;94778.16;5538550;25;20038;-78
2024/04/13 02:36:02;;;;;;;14.30;7.03;;;;;;;15.67;69.38;94777.50;5538886;25;19985;-78
2024/04/13 02:38:28;;;;;;;15.23;8.18;;;;;;;15.61;69.55;94771.56;5538600;25;20096;-77
2024/04/13 02:40:55;;;;;;;16.10;8.00;;;;;;;15.59;69.81;94773.78;5537956;26;19993;-78
2024/04/13 02:43:21;;;;;;;11.85;8.13;;;;;;;15.52;69.83;94770.78;5538395;26;20093;-78
2024/04/13 02:45:46;;;;;;;19.27;8.68;;;;;;;15.44;70.00;94780.44;5538319;25;19986;-78
2024/04/13 02:48:12;;;;;;;16.92;8.95;;;;;;;15.39;69.97;94775.25;5538735;26;19992;-78
2024/04/13 02:50:37;;;;;;;17.85;8.73;;;;;;;15.36;70.18;94778.56;5538624;26;20059;-78
2024/04/13 02:53:02;;;;;;;19.35;9.52;;;;;;;15.31;70.62;94784.13;5537721;25;20006;-79
2024/04/13 02:55:28;;;;;;;16.17;8.90;;;;;;;15.18;71.00;94777.03;5535576;25;20213;-78
2024/04/13 02:57:53;;;;;;;15.27;9.25;;;;;;;15.15;71.24;94780.38;5536154;26;19981;-78
2024/04/13 03:00:19;;;;;;;18.23;9.00;;;;;;;15.13;71.25;94782.59;5536771;25;20045;-78
2024/04/13 03:02:44;;;;;;;21.33;9.25;;;;;;;15.09;71.53;94787.03;5537787;25;19993;-78
2024/04/13 03:05:09;;;;;;;20.67;9.38;;;;;;;15.04;71.63;94780.72;5538147;26;19982;-78
2024/04/13 03:07:35;;;;;;;12.30;8.63;;;;;;;15.03;71.71;94786.41;5538441;25;19982;-78
2024/04/13 03:10:00;;;;;;;14.82;8.57;;;;;;;15.01;71.66;94786.72;5537651;25;19994;-78
2024/04/13 03:12:26;;;;;;;23.58;8.50;;;;;;;14.99;71.86;94788.13;5537932;26;20161;-78
2024/04/13 03:14:51;;;;;;;20.50;8.57;;;;;;;14.95;71.83;94790.66;5538086;26;19998;-78
2024/04/13 03:17:17;;;;;;;15.93;7.65;;;;;;;14.91;72.33;94784.34;5537575;26;20092;-77
2024/04/13 03:19:42;;;;;;;16.50;7.47;;;;;;;14.86;72.38;94789.91;5540429;25;20049;-77
2024/04/13 03:22:08;;;;;;;21.20;9.05;;;;;;;14.83;72.68;94779.78;5541917;26;20005;-77
2024/04/13 03:24:34;;;;;;;15.55;8.50;;;;;;;14.82;72.06;94791.63;5541616;25;20017;-82
2024/04/13 03:27:03;;;;;;;16.20;7.97;;;;;;;14.82;72.46;94788.94;5541556;26;19985;-77
2024/04/13 03:29:29;;;;;;;19.58;9.57;;;;;;;14.80;72.27;94789.25;5541426;26;20208;-78
2024/04/13 03:31:54;;;;;;;17.35;8.07;;;;;;;14.79;72.55;94786.88;5541443;26;19992;-77
2024/04/13 03:34:20;;;;;;;14.80;8.50;;;;;;;14.75;72.65;94788.63;5541053;25;20185;-77
2024/04/13 03:36:46;;;;;;;15.52;8.30;;;;;;;14.75;72.75;94789.41;5541535;26;20077;-78
2024/04/13 03:39:11;;;;;;;21.92;8.30;;;;;;;14.75;72.36;94789.41;5540294;26;19981;-77
2024/04/13 03:41:36;;;;;;;14.68;8.73;;;;;;;14.70;72.56;94792.25;5539542;25;20097;-78
2024/04/13 03:44:02;;;;;;;24.52;9.07;;;;;;;14.70;73.00;94788.81;5509161;26;19996;-77
2024/04/13 03:46:27;;;;;;;16.13;8.05;;;;;;;14.67;72.55;94792.09;5540475;25;20068;-77
2024/04/13 03:48:53;;;;;;;15.75;9.35;;;;;;;14.62;72.87;94791.16;5508855;26;19997;-77
2024/04/13 03:51:18;;;;;;;20.27;8.10;;;;;;;14.62;73.19;94796.53;5541218;25;20204;-77
2024/04/13 03:53:44;;;;;;;15.23;8.40;;;;;;;14.58;73.12;94798.25;5540890;25;19986;-76
2024/04/13 03:56:09;;;;;;;17.27;9.32;;;;;;;14.58;73.45;94806.31;5541122;25;19989;-77
2024/04/13 03:58:35;;;;;;;16.70;8.30;;;;;;;14.56;73.47;94807.72;5541200;26;20092;-77
2024/04/13 04:01:01;;;;;;;15.77;8.48;;;;;;;14.55;73.83;94803.41;5541057;26;19997;-77
2024/04/13 04:03:26;;;;;;;19.50;9.27;;;;;;;14.55;73.68;94806.91;5540758;25;19993;-77
2024/04/13 04:05:54;;;;;;;14.25;8.65;;;;;;;14.55;73.38;94811.47;5540966;25;19985;-77
2024/04/13 04:08:19;;;;;;;18.60;8.35;;;;;;;14.53;73.62;94814.50;5540576;26;20037;-77
2024/04/13 04:10:45;;;;;;;21.92;8.52;;;;;;;14.50;73.75;94815.09;5540809;26;20173;-76
2024/04/13 04:13:10;;;;;;;20.05;8.65;;;;;;;14.50;73.62;94814.31;5540495;26;20009;-77
2024/04/13 04:15:36;;;;;;;30.42;9.02;;;;;;;14.49;73.63;94826.94;5540568;25;19981;-77
2024/04/13 04:18:04;;;;;;;15.13;8.05;;;;;;;14.50;73.48;94825.03;5540826;26;20001;-78
2024/04/13 04:20:33;;;;;;;22.20;8.77;;;;;;;14.52;73.80;94829.00;5540343;25;19985;-77
2024/04/13 04:22:59;;;;;;;40.35;12.15;;;;;;;14.54;73.91;94834.03;5540423;26;19987;-78
2024/04/13 04:25:25;;;;;;;24.83;9.20;;;;;;;14.53;74.03;94833.25;5540470;25;19985;-77
2024/04/13 04:27:50;;;;;;;19.15;9.75;;;;;;;14.56;73.74;94840.69;5540135;26;19993;-78
2024/04/13 04:30:19;;;;;;;24.58;10.85;;;;;;;14.58;74.14;94840.41;5539818;25;19986;-77
2024/04/13 04:32:45;;;;;;;19.65;9.85;;;;;;;14.59;74.18;94844.63;5540929;26;19992;-77
2024/04/13 04:35:10;;;;;;;21.05;9.23;;;;;;;14.62;73.98;94849.41;5540468;26;19996;-77
2024/04/13 04:37:36;;;;;;;12.93;8.52;;;;;;;14.65;73.92;94848.75;5540760;26;19992;-78
2024/04/13 04:40:03;;;;;;;20.23;8.77;;;;;;;14.64;73.45;94853.34;5540315;25;19985;-77
2024/04/13 04:42:28;;;;;;;22.17;10.90;;;;;;;14.59;73.92;94845.44;5540187;26;20398;-77
2024/04/13 04:44:54;;;;;;;22.00;9.30;;;;;;;14.58;74.06;94848.44;5540533;25;19985;-77
2024/04/13 04:47:20;;;;;;;24.45;9.23;;;;;;;14.56;74.75;94850.66;5540627;26;20009;-77
2024/04/13 04:49:46;;;;;;;18.70;9.43;;;;;;;14.48;74.98;94846.81;5539972;26;19989;-77
2024/04/13 04:52:12;;;;;;;20.65;9.23;;;;;;;14.44;76.38;94845.84;5540459;25;19996;-78
2024/04/13 04:54:38;;;;;;;17.67;9.07;;;;;;;14.44;76.87;94848.53;5540312;25;20177;-79
2024/04/13 04:57:04;;;;;;;15.90;8.45;;;;;;;14.42;77.60;94840.81;5540392;25;19986;-78
2024/04/13 04:59:29;;;;;;;21.02;9.55;;;;;;;14.46;78.56;94843.66;5540446;26;19986;-78
2024/04/13 05:01:56;;;;;;;20.52;9.15;;;;;;;14.57;78.46;94841.47;5540476;25;20189;-79
2024/04/13 05:04:22;;;;;;;18.77;9.32;;;;;;;14.57;78.83;94836.13;5540038;25;20464;-79
2024/04/13 05:06:47;;;;;;;20.02;9.02;;;;;;;14.66;78.44;94836.16;5540093;26;19986;-79
2024/04/13 05:09:13;;;;;;;26.05;8.98;;;;;;;14.72;78.10;94833.00;5539066;26;19997;-79
2024/04/13 05:11:38;;;;;;;18.80;9.82;;;;;;;14.83;78.02;94833.44;5539355;25;20034;-79
2024/04/13 05:14:05;;;;;;;26.05;8.85;;;;;;;14.89;77.88;94832.19;5539242;26;20096;-80
2024/04/13 05:16:31;;;;;;;17.15;9.10;;;;;;;14.96;77.70;94832.53;5539724;25;19993;-79
2024/04/13 05:18:56;;;;;;;18.75;8.95;;;;;;;15.01;76.95;94835.03;5539409;25;20323;-79
2024/04/13 05:21:22;;;;;;;17.45;9.68;;;;;;;15.09;76.82;94835.34;5540119;26;19985;-79
2024/04/13 05:23:47;;;;;;;23.27;9.95;;;;;;;15.20;75.93;94839.28;5539661;25;20045;-79
2024/04/13 05:26:12;;;;;;;19.25;7.82;;;;;;;15.29;74.73;94826.63;5539714;26;20091;-79
2024/04/13 05:28:38;;;;;;;18.25;8.70;;;;;;;15.42;74.57;94828.34;5539913;26;19993;-86
2024/04/13 05:31:09;;;;;;;12.82;6.82;;;;;;;15.52;72.52;94821.06;5539911;25;19997;-86
2024/04/13 05:33:35;;;;;;;13.25;6.85;;;;;;;15.64;71.30;94824.63;5540087;26;20021;-81
2024/04/13 05:36:02;;;;;;;8.90;6.10;;;;;;;15.77;71.06;94839.03;5539902;25;19982;-80
2024/04/13 05:38:27;;;;;;;13.43;6.47;;;;;;;15.90;69.98;94828.38;5539964;25;19995;-87
2024/04/13 05:40:53;;;;;;;13.35;6.30;;;;;;;15.99;69.24;94837.97;5540569;26;19997;-87
2024/04/13 05:43:19;;;;;;;10.13;6.65;;;;;;;16.05;68.54;94838.59;5539182;25;20232;-86
2024/04/13 05:45:45;;;;;;;11.50;5.93;;;;;;;16.14;68.48;94842.03;5540739;25;19993;-87
2024/04/13 05:48:11;;;;;;;18.80;6.57;;;;;;;16.13;68.33;94836.97;5508466;25;19985;-85
2024/04/13 05:50:36;;;;;;;14.88;6.47;;;;;;;16.09;68.74;94836.03;5508361;26;19992;-86
2024/04/13 05:53:02;;;;;;;14.70;6.40;;;;;;;16.15;68.94;94826.69;5539676;26;20013;-86
2024/04/13 05:55:27;;;;;;;10.35;5.88;;;;;;;16.19;68.21;94835.69;5540174;26;20132;-87
2024/04/13 05:57:52;;;;;;;12.30;5.90;;;;;;;16.19;67.94;94844.53;5539675;25;19986;-86
2024/04/13 06:00:18;;;;;;;13.68;6.10;;;;;;;16.08;68.00;94837.97;5539950;25;20010;-86
2024/04/13 06:02:43;;;;;;;12.57;6.18;;;;;;;16.07;68.23;94847.13;5539649;25;20121;-87
2024/04/13 06:05:09;;;;;;;8.98;5.30;;;;;;;15.95;68.90;94842.41;5508640;26;20196;-86
2024/04/13 06:07:34;;;;;;;16.63;6.28;;;;;;;16.00;68.77;94847.63;5540336;25;20002;-86
2024/04/13 06:10:00;;;;;;;17.67;7.38;;;;;;;15.95;69.55;94844.31;5538473;26;19981;-77
2024/04/13 06:12:26;;;;;;;17.00;6.75;;;;;;;15.98;69.84;94843.69;5539066;25;19982;-78
2024/04/13 06:14:52;;;;;;;15.18;6.00;;;;;;;15.97;69.44;94844.78;5507127;26;20010;-78
2024/04/13 06:17:18;;;;;;;19.48;7.85;;;;;;;15.93;69.45;94854.63;5538501;26;20100;-79
2024/04/13 06:19:44;;;;;;;21.38;6.97;;;;;;;15.98;69.42;94841.00;5538432;25;19981;-77
2024/04/13 06:22:09;;;;;;;17.85;6.57;;;;;;;15.97;69.66;94845.56;5538325;26;19982;-79
2024/04/13 06:24:35;;;;;;;15.70;7.38;;;;;;;15.98;70.46;94843.69;5539414;26;20207;-79
2024/04/13 06:27:01;;;;;;;10.85;6.53;;;;;;;16.01;69.85;94854.56;5539155;25;19997;-79
2024/04/13 06:29:27;;;;;;;18.33;6.72;;;;;;;15.97;69.88;94856.34;5538832;26;19982;-79
2024/04/13 06:31:53;;;;;;;15.45;7.03;;;;;;;16.00;70.09;94853.00;5506820;26;19981;-79
2024/04/13 06:34:18;;;;;;;17.30;6.63;;;;;;;16.07;69.86;94860.56;5538853;25;20029;-82
2024/04/13 06:36:44;;;;;;;15.68;6.75;;;;;;;16.04;70.33;94853.16;5538548;25;20000;-81
2024/04/13 06:39:14;;;;;;;14.07;7.05;;;;;;;16.11;70.12;94864.19;5536751;26;19982;-83
2024/04/13 06:41:44;;;;;;;12.57;7.28;;;;;;;16.24;69.46;94857.00;5537401;25;19986;-82
2024/04/13 06:44:09;;;;;;;18.13;6.93;;;;;;;16.33;69.49;94851.59;5537135;26;19986;-83
2024/04/13 06:46:35;;;;;;;10.82;5.97;;;;;;;16.38;68.55;94862.16;5536292;25;20200;-83
2024/04/13 06:49:00;;;;;;;11.70;5.85;;;;;;;16.43;68.50;94853.91;5506432;26;19993;-82
2024/04/13 06:51:26;;;;;;;14.80;6.22;;;;;;;16.48;67.83;94872.53;5506260;26;19996;-82
2024/04/13 06:53:52;;;;;;;21.40;6.80;;;;;;;16.52;68.03;94856.53;5540053;26;19985;-82
2024/04/13 06:56:19;;;;;;;12.27;5.70;;;;;;;16.63;67.46;94855.06;5542075;25;20000;-82
2024/04/13 06:58:45;;;;;;;13.70;6.53;;;;;;;16.74;67.27;94858.16;5536702;25;20102;-81
2024/04/13 07:01:10;;;;;;;14.30;5.75;;;;;;;16.83;66.54;94853.50;5537035;25;19989;-82
2024/04/13 07:03:36;;;;;;;10.52;6.50;;;;;;;16.85;66.03;94864.72;5537021;25;20001;-81
2024/04/13 07:06:05;;;;;;;12.95;6.40;;;;;;;16.86;65.83;94844.78;5537611;26;19989;-82
2024/04/13 07:08:30;;;;;;;9.10;5.50;;;;;;;16.87;65.07;94848.25;5539157;25;20017;-83
2024/04/13 07:10:56;;;;;;;14.10;5.35;;;;;;;16.92;64.38;94856.94;5539224;26;19981;-86
2024/04/13 07:13:22;;;;;;;9.68;5.10;;;;;;;16.97;64.10;94864.78;5540695;25;19985;-86
2024/04/13 07:15:49;;;;;;;16.20;6.18;;;;;;;17.04;64.27;94843.53;5541978;26;20124;-86
2024/04/13 07:18:15;;;;;;;14.55;5.80;;;;;;;17.07;64.38;94854.75;5510373;26;20001;-85
2024/04/13 07:20:46;;;;;;;12.68;5.82;;;;;;;17.21;64.25;94844.50;5541789;25;19993;-84
2024/04/13 07:23:12;;;;;;;18.25;5.47;;;;;;;17.38;64.05;94841.66;5541807;26;20001;-84
2024/04/13 07:25:38;;;;;;;10.88;4.93;;;;;;;17.49;63.69;94838.53;5510246;26;19985;-84
2024/04/13 07:28:03;;;;;;;20.50;8.48;;;;;;;17.51;63.43;94847.06;5541572;25;19989;-84
2024/04/13 07:30:31;;;;;;;17.00;6.03;;;;;;;17.53;63.40;94844.84;5540955;26;20157;-85
2024/04/13 07:32:56;;;;;;;20.70;5.70;;;;;;;17.57;63.44;94843.06;5541447;26;20212;-84
2024/04/13 07:35:22;;;;;;;15.25;5.32;;;;;;;17.66;63.04;94841.03;5510113;26;19989;-84
2024/04/13 07:37:47;;;;;;;14.27;5.25;;;;;;;17.70;61.90;94841.16;5541684;26;19989;-85
2024/04/13 07:40:13;;;;;;;12.13;4.95;;;;;;;17.79;61.48;94831.84;5541591;26;19986;-84
2024/04/13 07:42:38;;;;;;;13.63;5.20;;;;;;;17.90;61.21;94834.94;5541640;25;19985;-85
2024/04/13 07:45:04;;;;;;;11.95;4.82;;;;;;;17.96;60.94;94832.81;5541636;25;19986;-85
2024/04/13 07:47:29;;;;;;;9.48;4.72;;;;;;;17.96;60.90;94836.28;5541555;25;20005;-86
2024/04/13 07:49:55;;;;;;;13.80;4.95;;;;;;;18.08;60.87;94837.44;5541457;26;20258;-83
2024/04/13 07:52:20;;;;;;;15.25;5.13;;;;;;;18.13;59.98;94824.47;5509836;26;20153;-84
2024/04/13 07:54:46;;;;;;;8.18;4.25;;;;;;;18.19;59.82;94843.94;5541265;26;19995;-83
2024/04/13 07:57:11;;;;;;;12.60;4.75;;;;;;;18.22;59.27;94825.16;5541271;26;19986;-84
2024/04/13 07:59:37;;;;;;;17.05;4.50;;;;;;;18.24;58.12;94825.63;5541706;25;20038;-83
2024/04/13 08:02:02;;;;;;;9.82;5.57;;;;;;;18.36;58.88;94818.63;5541016;25;19981;-83
2024/04/13 08:04:28;;;;;;;13.50;4.90;;;;;;;18.53;59.79;94821.09;5540314;25;19996;-84
2024/04/13 08:06:53;;;;;;;11.13;4.72;;;;;;;18.59;58.70;94818.94;5539057;25;19995;-84
2024/04/13 08:09:18;;;;;;;14.73;5.60;;;;;;;18.74;58.85;94814.75;5509606;26;19985;-83
2024/04/13 08:11:44;;;;;;;21.15;5.80;;;;;;;18.87;57.87;94818.22;5541239;26;20009;-83
2024/04/13 08:14:09;;;;;;;13.63;4.82;;;;;;;18.94;55.24;94813.81;5509210;26;20000;-83
2024/04/13 08:16:34;;;;;;;14.80;4.45;;;;;;;19.04;54.95;94818.72;5541355;26;20082;-83
2024/04/13 08:19:00;;;;;;;16.60;4.30;;;;;;;19.16;56.03;94815.19;5541379;25;19981;-84
2024/04/13 08:21:25;;;;;;;12.05;4.68;;;;;;;19.27;56.00;94818.19;5509437;26;20002;-83
2024/04/13 08:23:51;;;;;;;10.43;4.65;;;;;;;19.32;54.97;94819.88;5540793;25;19981;-81
2024/04/13 08:26:16;;;;;;;8.50;4.63;;;;;;;19.31;55.35;94810.97;5540882;25;20005;-84
2024/04/13 08:28:42;;;;;;;12.15;4.35;;;;;;;19.38;54.88;94821.19;5540911;25;19985;-84
2024/04/13 08:31:07;;;;;;;12.68;4.00;;;;;;;19.38;53.48;94804.97;5540850;25;19997;-83
2024/04/13 08:33:33;;;;;;;8.75;4.28;;;;;;;19.44;53.98;94804.38;5540732;25;19986;-82
2024/04/13 08:36:04;;;;;;;8.35;3.85;;;;;;;19.52;53.09;94799.94;5540538;25;20178;-82
2024/04/13 08:38:31;;;;;;;8.60;4.35;;;;;;;19.50;51.61;94796.81;5541226;26;19991;-83
2024/04/13 08:40:59;;;;;;;15.90;5.15;;;;;;;19.56;52.31;94800.03;5508582;25;19986;-83
2024/04/13 08:43:25;;;;;;;17.27;4.13;;;;;;;19.52;51.98;94797.25;5540959;26;19997;-83
2024/04/13 08:45:51;;;;;;;9.75;4.28;;;;;;;19.48;51.97;94787.44;5540640;25;19981;-82
2024/04/13 08:48:17;;;;;;;9.43;4.70;;;;;;;19.55;52.19;94793.84;5508838;26;19989;-83
2024/04/13 08:50:43;;;;;;;7.63;3.40;;;;;;;19.67;50.35;94803.78;5540510;25;20088;-84
2024/04/13 08:53:09;;;;;;;12.13;3.80;;;;;;;19.65;50.80;94789.84;5540840;26;19985;-83
2024/04/13 08:55:37;;;;;;;7.93;3.80;;;;;;;19.71;51.79;94780.34;5540323;25;20113;-83
2024/04/13 08:58:03;;;;;;;13.90;3.53;;;;;;;19.81;51.15;94801.47;5509154;26;19981;-83
2024/04/13 09:00:31;;;;;;;12.57;3.95;;;;;;;19.89;49.24;94786.22;5540486;26;19996;-83
2024/04/13 09:02:56;;;;;;;7.18;3.60;;;;;;;19.96;50.10;94788.28;5540687;25;19985;-83
2024/04/13 09:05:25;;;;;;;9.70;3.47;;;;;;;20.03;48.42;94785.78;5540237;26;20262;-83
2024/04/13 09:07:52;;;;;;;8.13;3.28;;;;;;;19.91;48.33;94783.16;5508667;26;19995;-83
2024/04/13 09:10:18;;;;;;;7.13;2.78;;;;;;;19.96;48.43;94786.38;5540122;25;20098;-83
2024/04/13 09:12:44;;;;;;;12.77;3.45;;;;;;;20.07;47.92;94780.44;5508682;26;19982;-83
2024/04/13 09:15:10;;;;;;;8.35;3.60;;;;;;;20.10;47.23;94788.63;5539779;25;20046;-83
2024/04/13 09:17:36;;;;;;;10.50;3.90;;;;;;;20.20;46.34;94771.84;5539783;26;19997;-83
2024/04/13 09:20:09;;;;;;;13.40;3.33;;;;;;;20.31;46.30;94780.22;5539955;26;19981;-83
2024/04/13 09:22:36;;;;;;;13.85;3.67;;;;;;;20.43;46.55;94777.41;5539990;25;19981;-83
2024/04/13 09:25:02;;;;;;;10.48;3.42;;;;;;;20.58;45.91;94786.66;5539987;26;19988;-83
2024/04/13 09:27:31;;;;;;;6.43;3.13;;;;;;;20.62;43.34;94782.09;5539865;25;19989;-84
2024/04/13 09:30:08;;;;;;;9.02;3.00;;;;;;;20.59;44.35;94769.25;5539845;25;19992;-84
2024/04/13 09:32:33;;;;;;;11.68;3.70;;;;;;;20.70;44.60;94768.69;5508171;26;19997;-83
2024/04/13 09:35:14;;;;;;;17.65;3.05;;;;;;;20.89;42.15;94768.72;5539968;26;20237;-83
2024/04/13 09:37:40;;;;;;;12.50;3.38;;;;;;;21.02;42.59;94764.72;5539809;25;20041;-83
2024/04/13 09:40:06;;;;;;;8.15;2.88;;;;;;;21.20;40.95;94765.06;5540018;26;19985;-84
2024/04/13 09:42:32;;;;;;;8.00;3.40;;;;;;;21.33;41.15;94768.41;5507808;26;19995;-84
2024/04/13 09:45:06;;;;;;;13.27;2.85;;;;;;;21.34;39.70;94767.25;5539533;25;20513;-83
2024/04/13 09:47:32;;;;;;;6.68;2.90;;;;;;;21.31;40.17;94762.56;5539331;26;20009;-84
2024/04/13 09:49:58;;;;;;;5.70;2.72;;;;;;;21.41;39.42;94769.28;5539615;26;20232;-84
2024/04/13 09:52:24;;;;;;;8.10;2.95;;;;;;;21.46;39.39;94762.84;5539452;26;20033;-84
2024/04/13 09:54:51;;;;;;;6.95;2.72;;;;;;;21.54;39.12;94751.75;5539646;25;20044;-83
2024/04/13 09:57:18;;;;;;;6.93;3.15;;;;;;;21.59;39.38;94756.88;5539502;26;20067;-83
2024/04/13 09:59:47;;;;;;;8.98;3.22;;;;;;;21.58;38.77;94746.41;5539752;25;19992;-84
2024/04/13 10:02:12;;;;;;;5.47;2.80;;;;;;;21.60;39.23;94749.53;5539173;25;20088;-83
2024/04/13 10:04:38;;;;;;;11.63;2.60;;;;;;;21.71;39.54;94750.47;5539961;26;19982;-83
2024/04/13 10:07:05;;;;;;;12.48;3.38;;;;;;;21.76;37.57;94769.19;5539438;25;19982;-84
2024/04/13 10:09:33;;;;;;;10.23;2.97;;;;;;;21.79;37.08;94760.31;5539428;26;19982;-84
2024/04/13 10:12:00;;;;;;;8.82;2.92;;;;;;;21.83;37.41;94747.56;5539015;25;19982;-83
2024/04/13 10:14:27;;;;;;;9.60;2.50;;;;;;;21.84;36.24;94746.44;5539210;26;20201;-83
2024/04/13 10:16:55;;;;;;;5.85;2.60;;;;;;;21.87;35.39;94763.16;5538824;26;20229;-84
2024/04/13 10:19:22;;;;;;;6.65;2.50;;;;;;;21.82;35.40;94756.88;5538771;25;20042;-83
2024/04/13 10:22:01;;;;;;;11.25;2.38;;;;;;;21.82;36.49;94740.59;5538867;26;20014;-83
2024/04/13 10:24:28;;;;;;;4.45;2.38;;;;;;;21.96;37.20;94739.25;5538661;26;20211;-83
2024/04/13 10:26:53;;;;;;;6.95;2.92;;;;;;;21.99;35.96;94741.25;5538566;26;20233;-83
2024/04/13 10:29:26;;;;;;;12.85;2.67;;;;;;;22.05;36.14;94737.06;5541178;26;19985;-84
2024/04/13 10:31:51;;;;;;;6.15;2.97;;;;;;;22.03;35.72;94742.06;5542721;26;19997;-84
2024/04/13 10:34:24;;;;;;;8.43;2.92;;;;;;;22.04;36.65;94730.06;5542218;25;20220;-84
2024/04/13 10:36:57;;;;;;;6.60;3.17;;;;;;;22.14;36.41;94720.50;5542301;26;20024;-84
2024/04/13 10:39:23;;;;;;;8.85;3.15;;;;;;;22.19;36.98;94720.97;5542569;26;20059;-84
2024/04/13 10:41:49;;;;;;;9.52;2.80;;;;;;;22.31;35.95;94713.78;5541900;25;20138;-82
2024/04/13 10:44:25;;;;;;;12.15;3.25;;;;;;;22.40;36.16;94708.88;5541798;26;20054;-84
2024/04/13 10:46:51;;;;;;;15.60;2.83;;;;;;;22.49;35.80;94717.56;5510660;26;20071;-85
2024/04/13 10:49:20;;;;;;;14.77;3.17;;;;;;;22.51;35.20;94714.44;5542192;25;19985;-82
2024/04/13 10:51:48;;;;;;;11.23;3.65;;;;;;;22.39;35.58;94701.91;5541713;26;19996;-84
2024/04/13 10:54:14;;;;;;;4.63;2.55;;;;;;;22.45;35.66;94705.84;5510200;25;19989;-81
2024/04/13 10:56:42;;;;;;;11.55;3.30;;;;;;;22.58;35.69;94695.53;5542126;26;19991;-82
2024/04/13 10:59:08;;;;;;;10.52;2.40;;;;;;;22.68;34.88;94696.81;5541832;25;19985;-84
2024/04/13 11:01:41;;;;;;;11.40;3.05;;;;;;;22.83;34.55;94699.31;5541921;25;19992;-85
2024/04/13 11:04:07;;;;;;;4.50;2.25;;;;;;;22.87;33.87;94693.94;5542283;26;19981;-87
2024/04/13 11:06:32;;;;;;;9.00;2.70;;;;;;;22.91;34.40;94689.31;5542120;25;20108;-87
2024/04/13 11:08:58;;;;;;;9.68;2.97;;;;;;;23.02;34.02;94684.03;5543196;26;19981;-86
2024/04/13 11:11:25;;;;;;;7.45;2.60;;;;;;;23.20;34.61;94678.75;5542299;25;20104;-86
2024/04/13 11:13:50;;;;;;;9.30;2.85;;;;;;;23.22;33.49;94674.53;5541864;25;19989;-87
2024/04/13 11:16:16;;;;;;;7.78;2.90;;;;;;;23.35;34.18;94674.25;5541906;25;20055;-86
2024/04/13 11:18:41;;;;;;;10.88;2.53;;;;;;;23.51;33.42;94672.06;5510435;26;19988;-86
2024/04/13 11:21:10;;;;;;;4.65;2.47;;;;;;;23.64;31.79;94661.66;5541777;26;19981;-87
2024/04/13 11:23:36;;;;;;;9.00;2.33;;;;;;;23.70;31.81;94671.03;5541768;26;20201;-85